Time;durP1;ratioP1;P1;durP2;ratioP2;P2;SDS_P1;SDS_P2;PMS_P1;PMS_P2;Temp;Humidity;BMP_temperature;BMP_pressure;BME280_temperature;BME280_humidity;BME280_pressure;Samples;Min_cycle;Max_cycle;Signal;HPM_P1;HPM_P2
2023/05/26 00:08:38;;;;;;;14.70;9.65;;;;;;;11.95;70.54;100855.72;30747307;28;96849;-67
2023/05/26 00:23:39;;;;;;;17.37;9.87;;;;;;;11.82;70.93;100861.50;30745953;28;97121;-67
2023/05/26 00:38:41;;;;;;;18.83;9.93;;;;;;;11.88;71.24;100856.50;30744266;28;97590;-66
2023/05/26 00:53:43;;;;;;;17.38;10.23;;;;;;;11.88;70.99;100864.50;30700465;28;114460;-66
2023/05/26 01:08:43;;;;;;;16.47;10.33;;;;;;;12.16;71.41;100857.94;30725702;28;97453;-66
2023/05/26 01:23:51;;;;;;;13.68;7.28;;;;;;;12.49;71.42;100854.47;30739924;28;97581;-67
2023/05/26 01:38:52;;;;;;;11.80;7.17;;;;;;;12.72;71.00;100841.25;30738081;28;96943;-66
2023/05/26 01:53:55;;;;;;;11.70;7.57;;;;;;;12.89;70.78;100850.13;30736801;28;96549;-67
2023/05/26 02:08:55;;;;;;;12.77;6.73;;;;;;;13.01;70.34;100855.94;30735335;28;96815;-67
2023/05/26 02:23:56;;;;;;;13.80;7.85;;;;;;;13.10;70.24;100875.50;30734548;28;96851;-66
2023/05/26 02:38:56;;;;;;;14.48;7.68;;;;;;;13.10;70.02;100870.16;30733385;28;96636;-66
2023/05/26 02:53:56;;;;;;;14.15;8.32;;;;;;;13.12;70.17;100881.50;30731349;28;113150;-66
2023/05/26 03:08:56;;;;;;;11.30;7.25;;;;;;;13.14;69.95;100872.28;30737172;28;107043;-66
2023/05/26 03:23:57;;;;;;;12.07;7.63;;;;;;;13.24;70.01;100881.97;30750884;28;107965;-68
2023/05/26 03:38:57;;;;;;;13.95;7.45;;;;;;;13.34;69.84;100888.81;30748228;28;96804;-66
2023/05/26 03:53:58;;;;;;;15.93;7.22;;;;;;;13.48;69.66;100900.69;30746753;28;97528;-68
2023/05/26 04:09:00;;;;;;;17.70;7.35;;;;;;;13.71;69.43;100908.78;30745054;28;111464;-68
2023/05/26 04:24:01;;;;;;;11.47;6.73;;;;;;;13.98;68.81;100921.91;30741076;28;97133;-68
2023/05/26 04:39:01;;;;;;;14.25;7.28;;;;;;;13.98;68.15;100927.25;30731274;28;97090;-69
2023/05/26 04:54:02;;;;;;;12.77;5.43;;;;;;;14.27;67.51;100933.81;30724438;28;97498;-69
2023/05/26 05:09:02;;;;;;;20.23;6.15;;;;;;;14.72;66.87;100930.38;30742010;28;96995;-67
2023/05/26 05:24:03;;;;;;;15.20;5.57;;;;;;;15.17;66.13;100951.97;30744031;28;96739;-64
2023/05/26 05:39:03;;;;;;;14.73;5.47;;;;;;;15.70;64.82;100959.13;30735779;28;96991;-65
2023/05/26 05:54:03;;;;;;;11.68;4.60;;;;;;;16.22;63.84;100968.94;30739787;28;96736;-70
2023/05/26 06:09:04;;;;;;;11.15;5.00;;;;;;;16.87;62.28;100976.25;30738443;28;109569;-65
2023/05/26 06:24:05;;;;;;;10.55;4.28;;;;;;;18.03;59.45;100989.34;30733195;28;97027;-63
2023/05/26 06:39:05;;;;;;;15.65;5.05;;;;;;;18.04;58.07;100999.13;30733024;28;96814;-66
2023/05/26 06:54:06;;;;;;;12.02;4.65;;;;;;;18.32;56.80;100983.88;30647889;28;96890;-67
2023/05/26 07:09:06;;;;;;;11.93;3.95;;;;;;;19.44;54.17;101000.47;30646108;28;96953;-64
2023/05/26 07:24:06;;;;;;;11.13;2.78;;;;;;;21.61;49.01;101001.66;30612005;28;97275;-69
2023/05/26 07:39:07;;;;;;;10.47;2.93;;;;;;;21.91;44.10;101013.66;30608915;28;96696;-69
2023/05/26 07:54:07;;;;;;;11.70;3.60;;;;;;;22.45;42.25;101019.31;30611314;28;96841;-70
2023/05/26 08:09:08;;;;;;;10.52;3.05;;;;;;;23.15;39.73;101021.44;30625733;28;101943;-67
2023/05/26 08:24:08;;;;;;;;;;;;;;;24.49;36.88;101039.91;30624479;28;97568;-70
2023/05/26 08:39:09;;;;;;;7.57;3.08;;;;;;;24.59;34.61;101026.47;30622807;28;98362;-71
2023/05/26 08:54:09;;;;;;;11.65;2.58;;;;;;;25.10;33.47;101018.41;30623920;28;96824;-74
2023/05/26 09:09:10;;;;;;;13.00;3.15;;;;;;;25.15;32.46;101014.94;30628887;28;97915;-67
2023/05/26 09:24:18;;;;;;;11.50;2.65;;;;;;;25.66;31.67;101004.84;30623705;28;96718;-65
2023/05/26 09:39:18;;;;;;;8.10;2.50;;;;;;;27.05;30.40;101004.78;30610330;28;97113;-67
2023/05/26 09:54:19;;;;;;;10.75;2.88;;;;;;;27.96;29.45;101006.47;30706406;28;97856;-66
2023/05/26 11:22:56;;;;;;;9.37;2.30;;;;;;;28.11;23.95;100996.69;31083332;28;96679;-71
2023/05/26 11:37:57;;;;;;;7.35;2.10;;;;;;;29.21;23.04;100986.41;31064556;28;97593;-69
2023/05/26 11:52:57;;;;;;;10.38;2.40;;;;;;;30.04;22.97;100962.34;31066209;28;97206;-66
2023/05/26 12:08:05;;;;;;;7.70;2.75;;;;;;;29.71;23.42;100950.94;31075448;28;96797;-68
2023/05/26 12:23:08;;;;;;;10.50;2.37;;;;;;;29.79;22.17;100942.09;31054061;28;96691;-66
2023/05/26 12:38:12;;;;;;;8.23;2.70;;;;;;;29.14;20.94;100925.53;30989851;28;96674;-65
2023/05/26 12:53:12;;;;;;;7.07;2.20;;;;;;;29.58;21.87;100918.56;30987737;28;96686;-68
2023/05/26 13:08:12;;;;;;;6.78;1.85;;;;;;;29.25;23.73;100916.22;30985152;28;97303;-67
2023/05/26 13:23:13;;;;;;;6.38;2.33;;;;;;;29.51;22.35;100910.66;30985309;28;96701;-68
2023/05/26 13:38:13;;;;;;;6.25;2.30;;;;;;;28.27;21.39;100908.00;30983079;28;97351;-67
2023/05/26 13:53:14;;;;;;;6.78;2.10;;;;;;;28.18;21.65;100909.63;30980708;28;96682;-67
2023/05/26 14:08:14;;;;;;;7.53;2.40;;;;;;;27.70;23.35;100898.78;30979179;28;96854;-67
2023/05/26 14:23:15;;;;;;;6.60;2.50;;;;;;;27.72;24.53;100901.25;30978582;28;96767;-67
2023/05/26 14:38:15;;;;;;;6.07;2.15;;;;;;;26.91;23.62;100897.78;30974278;28;96841;-64
2023/05/26 14:53:15;;;;;;;7.43;1.77;;;;;;;25.58;23.76;100877.03;30976999;28;97457;-67
2023/05/26 15:08:16;;;;;;;9.25;2.53;;;;;;;24.99;25.15;100864.78;30975707;28;96826;-65
2023/05/26 15:23:16;;;;;;;7.63;2.33;;;;;;;24.50;26.04;100878.97;30976119;28;107110;-65
2023/05/26 15:38:17;;;;;;;11.55;2.35;;;;;;;24.13;26.38;100865.00;30973209;28;97353;-66
2023/05/26 15:53:17;;;;;;;5.95;1.75;;;;;;;23.98;26.17;100869.06;30971611;28;96793;-65
2023/05/26 16:08:18;;;;;;;5.65;1.98;;;;;;;23.36;26.90;100866.16;30990142;28;98583;-68
2023/05/26 16:23:18;;;;;;;;;;;;;;;22.82;27.96;100864.38;30989345;28;97159;-68
2023/05/26 16:38:20;;;;;;;6.72;1.92;;;;;;;22.13;28.55;100851.25;30986242;28;97395;-66
2023/05/26 16:53:20;;;;;;;7.27;2.47;;;;;;;21.44;28.83;100859.59;30985406;28;96743;-67
2023/05/26 17:08:20;;;;;;;8.43;2.83;;;;;;;20.81;30.23;100858.78;30985952;28;109375;-66
2023/05/26 17:23:21;;;;;;;8.87;2.03;;;;;;;20.26;30.29;100859.41;30985489;28;96739;-66
2023/05/26 17:38:21;;;;;;;9.60;2.63;;;;;;;19.74;31.31;100875.66;30984105;28;114488;-66
2023/05/26 17:53:21;;;;;;;7.47;2.28;;;;;;;19.20;32.21;100878.50;30982563;28;100080;-65
2023/05/26 18:08:22;;;;;;;5.68;2.20;;;;;;;18.67;33.12;100892.00;30980901;28;105293;-65
2023/05/26 18:23:22;;;;;;;4.97;1.77;;;;;;;18.10;34.10;100892.31;30980724;28;96687;-67
2023/05/26 18:38:22;;;;;;;8.98;2.63;;;;;;;17.51;35.00;100921.47;30980111;28;97439;-67
2023/05/26 18:53:23;;;;;;;5.70;2.03;;;;;;;16.92;36.57;100942.38;30976640;28;96868;-69
2023/05/26 19:08:23;;;;;;;8.10;2.75;;;;;;;16.40;37.63;100948.84;30974093;28;98011;-69
2023/05/26 19:23:29;;;;;;;8.63;2.65;;;;;;;15.99;39.03;100969.06;30975588;28;97336;-67
2023/05/26 19:38:31;;;;;;;8.37;3.07;;;;;;;15.67;40.65;100986.38;30986880;28;96891;-68
2023/05/26 19:53:32;;;;;;;10.17;2.77;;;;;;;15.32;42.04;100999.44;30995216;28;96631;-66
2023/05/26 20:08:34;;;;;;;11.25;3.38;;;;;;;15.01;43.66;101019.19;30995094;28;96916;-67
2023/05/26 20:23:34;;;;;;;10.53;3.33;;;;;;;14.70;44.69;101028.09;30993824;28;97600;-68
2023/05/26 20:38:36;;;;;;;17.70;3.38;;;;;;;14.44;45.57;101045.28;30991932;28;98260;-69
2023/05/26 20:53:36;;;;;;;11.73;3.27;;;;;;;14.16;46.56;101055.63;30989871;28;96747;-68
2023/05/26 21:08:37;;;;;;;10.73;3.30;;;;;;;13.97;47.58;101064.88;30988389;28;96812;-66
2023/05/26 21:23:38;;;;;;;12.90;3.45;;;;;;;13.69;48.24;101057.25;30988137;28;96784;-67
2023/05/26 21:38:39;;;;;;;15.20;3.37;;;;;;;13.50;48.73;101075.31;30985386;28;98665;-69
2023/05/26 21:53:39;;;;;;;14.32;3.35;;;;;;;13.28;49.26;101075.97;30984676;28;97776;-69
2023/05/26 22:08:39;;;;;;;9.65;3.05;;;;;;;13.03;49.88;101089.31;30983292;28;108612;-68
2023/05/26 22:23:40;;;;;;;12.70;3.70;;;;;;;12.75;50.74;101094.91;30982187;28;96843;-68
2023/05/26 22:38:40;;;;;;;13.85;4.22;;;;;;;12.48;51.46;101115.53;30981086;28;98448;-67
2023/05/26 22:53:41;;;;;;;12.15;3.33;;;;;;;12.22;52.76;101125.41;30979864;28;96749;-66
2023/05/26 23:08:41;;;;;;;18.85;5.15;;;;;;;11.91;53.45;101137.38;30978739;28;97471;-65
2023/05/26 23:23:42;;;;;;;15.50;3.90;;;;;;;11.61;53.94;101139.47;30977824;28;96723;-67
2023/05/26 23:38:42;;;;;;;10.40;3.28;;;;;;;11.37;54.62;101144.59;30976788;28;96666;-68
2023/05/26 23:53:43;;;;;;;13.20;3.38;;;;;;;11.14;55.54;101137.88;30974670;28;113380;-65
